Time;durP1;ratioP1;P1;durP2;ratioP2;P2;SDS_P1;SDS_P2;PMS_P1;PMS_P2;Temp;Humidity;BMP_temperature;BMP_pressure;BME280_temperature;BME280_humidity;BME280_pressure;Samples;Min_cycle;Max_cycle;Signal;HPM_P1;HPM_P2
2022/03/14 00:00:48;;;;;;;1.90;1.80;;;;;;;10.63;63.16;101563.28;5011247;28;20030;-62
2022/03/14 00:03:15;;;;;;;2.22;2.05;;;;;;;10.60;63.39;101566.97;5008641;28;20773;-61
2022/03/14 00:05:41;;;;;;;2.30;2.10;;;;;;;10.57;63.57;101564.50;5015027;28;20033;-62
2022/03/14 00:08:06;;;;;;;2.45;2.25;;;;;;;10.55;63.49;101567.25;5011939;28;20034;-62
2022/03/14 00:10:34;;;;;;;1.88;1.77;;;;;;;10.54;63.83;101572.66;5014096;28;20044;-61
2022/03/14 00:13:00;;;;;;;2.20;2.00;;;;;;;10.53;63.76;101570.97;5014766;28;20553;-62
2022/03/14 00:15:32;;;;;;;1.90;1.80;;;;;;;10.52;63.96;101569.25;5026479;28;20040;-62
2022/03/14 00:18:01;;;;;;;2.10;2.00;;;;;;;10.52;63.78;101575.44;5016356;28;20034;-61
2022/03/14 00:20:27;;;;;;;2.30;2.10;;;;;;;10.51;64.14;101581.69;5014851;28;20056;-61
2022/03/14 00:22:53;;;;;;;2.20;2.00;;;;;;;10.51;64.17;101581.69;5003464;28;20030;-61
2022/03/14 00:25:19;;;;;;;2.65;2.25;;;;;;;10.49;64.32;101590.72;5014688;28;20048;-61
2022/03/14 00:27:44;;;;;;;2.72;2.40;;;;;;;10.48;64.21;101589.88;5014546;28;20046;-62
2022/03/14 00:30:11;;;;;;;2.40;2.20;;;;;;;10.45;64.40;101595.38;5014717;28;20080;-62
2022/03/14 00:32:40;;;;;;;3.70;2.30;;;;;;;10.45;64.34;101589.22;5012323;28;20029;-62
2022/03/14 00:35:10;;;;;;;2.88;2.25;;;;;;;10.45;64.43;101598.03;5014358;28;20551;-62
2022/03/14 00:37:38;;;;;;;2.75;2.50;;;;;;;10.44;64.74;101600.78;5014478;28;20551;-61
2022/03/14 00:40:07;;;;;;;2.80;2.50;;;;;;;10.43;64.60;101604.41;5005830;28;20459;-61
2022/03/14 00:42:33;;;;;;;3.05;2.50;;;;;;;10.42;64.75;101605.34;5014537;28;20384;-62
2022/03/14 00:44:58;;;;;;;3.50;2.50;;;;;;;10.40;65.02;101610.75;5014385;28;20034;-63
2022/03/14 00:47:24;;;;;;;2.53;2.33;;;;;;;10.39;65.04;101619.66;5014270;28;20365;-63
2022/03/14 00:49:49;;;;;;;3.25;2.38;;;;;;;10.38;65.27;101623.28;5012059;28;20469;-63
2022/03/14 00:52:16;;;;;;;2.72;2.53;;;;;;;10.36;65.84;101619.88;5014198;28;20033;-63
2022/03/14 00:54:42;;;;;;;2.50;2.30;;;;;;;10.34;66.68;101627.94;5006354;28;20026;-63
2022/03/14 00:57:07;;;;;;;3.35;2.70;;;;;;;10.29;67.16;101627.34;5012821;28;20029;-63
2022/03/14 00:59:34;;;;;;;2.90;2.60;;;;;;;10.27;67.30;101629.22;5003594;28;20033;-63
2022/03/14 01:01:59;;;;;;;2.92;2.72;;;;;;;10.22;67.69;101633.97;5013895;28;20782;-63
2022/03/14 01:04:25;;;;;;;3.03;2.75;;;;;;;10.19;67.79;101631.50;5014015;28;20026;-63
2022/03/14 01:06:50;;;;;;;3.20;2.97;;;;;;;10.16;67.67;101634.38;5013509;28;20033;-62
2022/03/14 01:09:15;;;;;;;3.05;2.75;;;;;;;10.16;67.89;101637.03;5014104;28;20036;-63
2022/03/14 01:11:42;;;;;;;3.10;2.90;;;;;;;10.15;67.86;101644.09;5007527;28;20029;-63
2022/03/14 01:14:07;;;;;;;4.95;2.97;;;;;;;10.15;68.11;101640.63;5014509;28;20045;-62
2022/03/14 01:16:32;;;;;;;3.45;2.90;;;;;;;10.11;68.07;101639.13;5026785;28;20034;-63
2022/03/14 01:18:58;;;;;;;3.78;3.13;;;;;;;10.10;68.17;101646.19;5012849;28;20041;-61
2022/03/14 01:21:24;;;;;;;3.15;2.90;;;;;;;10.08;68.46;101645.44;5011812;28;20030;-61
2022/03/14 01:23:49;;;;;;;4.43;3.30;;;;;;;10.07;68.39;101654.34;5013305;28;20038;-61
2022/03/14 01:26:14;;;;;;;3.30;3.03;;;;;;;10.06;68.21;101657.09;5005756;28;20061;-60
2022/03/14 01:28:40;;;;;;;2.75;2.50;;;;;;;10.04;68.50;101651.03;5013688;28;20029;-61
2022/03/14 01:31:05;;;;;;;3.40;3.10;;;;;;;10.01;68.75;101660.06;5013389;28;20113;-61
2022/03/14 01:33:30;;;;;;;4.55;3.00;;;;;;;10.02;68.61;101666.22;5008395;28;20098;-60
2022/03/14 01:35:55;;;;;;;3.42;3.13;;;;;;;9.98;68.85;101666.38;5006037;28;20117;-61
2022/03/14 01:38:21;;;;;;;3.28;2.97;;;;;;;9.96;68.71;101668.28;5008401;28;20089;-61
2022/03/14 01:40:46;;;;;;;3.50;3.20;;;;;;;9.97;68.85;101669.13;5013295;28;20387;-61
2022/03/14 01:43:12;;;;;;;3.45;3.15;;;;;;;9.95;68.88;101663.91;5007317;28;20062;-60
2022/03/14 01:45:37;;;;;;;3.50;3.15;;;;;;;9.93;68.65;101662.31;5013518;28;20537;-60
2022/03/14 01:48:05;;;;;;;3.22;2.90;;;;;;;9.94;68.93;101662.22;5012857;28;20407;-61
2022/03/14 01:50:33;;;;;;;3.13;2.83;;;;;;;9.93;68.90;101664.97;5012123;28;20476;-60
2022/03/14 01:52:58;;;;;;;3.40;3.10;;;;;;;9.93;68.98;101678.25;5013289;28;20319;-61
2022/03/14 01:55:23;;;;;;;4.80;3.57;;;;;;;9.91;69.05;101673.03;5013108;28;20422;-60
2022/03/14 01:57:50;;;;;;;4.30;3.30;;;;;;;9.91;69.23;101675.69;5008281;28;20297;-61
2022/03/14 02:00:15;;;;;;;3.65;3.10;;;;;;;9.91;69.18;101680.09;5006650;28;20025;-61
2022/03/14 02:02:41;;;;;;;3.58;3.28;;;;;;;9.91;69.46;101685.41;5012721;28;20018;-61
2022/03/14 02:05:07;;;;;;;4.20;3.38;;;;;;;9.91;69.00;101694.25;5004011;28;20480;-62
2022/03/14 02:07:33;;;;;;;3.53;3.22;;;;;;;9.91;69.35;101694.25;5006288;28;20025;-61
2022/03/14 02:09:58;;;;;;;3.70;3.33;;;;;;;9.91;69.38;101693.38;5012560;28;20036;-61
2022/03/14 02:12:24;;;;;;;3.65;3.35;;;;;;;9.90;69.64;101689.03;5007110;28;20057;-61
2022/03/14 02:14:49;;;;;;;4.10;3.70;;;;;;;9.87;69.68;101694.53;5019427;28;20025;-61
2022/03/14 02:17:17;;;;;;;4.22;3.25;;;;;;;9.87;69.85;101697.19;5019891;28;20033;-61
2022/03/14 02:19:43;;;;;;;4.30;3.55;;;;;;;9.87;70.09;101707.78;5012779;28;20087;-62
2022/03/14 02:22:11;;;;;;;3.97;3.55;;;;;;;9.86;70.04;101708.72;5006706;28;20073;-61
2022/03/14 02:24:37;;;;;;;4.07;3.67;;;;;;;9.85;70.20;101710.53;5012773;28;20033;-63
2022/03/14 02:27:03;;;;;;;4.55;3.65;;;;;;;9.84;69.96;101708.81;5004998;28;20524;-62
2022/03/14 02:29:29;;;;;;;4.35;3.90;;;;;;;9.82;70.33;101713.38;5008179;28;20041;-61
2022/03/14 02:31:55;;;;;;;4.03;3.63;;;;;;;9.82;70.48;101714.25;5010660;28;20029;-61
2022/03/14 02:34:20;;;;;;;3.97;3.58;;;;;;;9.81;70.32;101709.88;5012109;28;20030;-61
2022/03/14 02:36:46;;;;;;;3.95;3.45;;;;;;;9.81;70.46;101715.16;5009186;28;20033;-61
2022/03/14 02:39:12;;;;;;;3.65;3.35;;;;;;;9.79;70.66;101719.72;5003827;28;20403;-62
2022/03/14 02:41:37;;;;;;;3.65;3.35;;;;;;;9.78;70.58;101715.34;5012417;28;20040;-62
2022/03/14 02:44:06;;;;;;;4.75;3.50;;;;;;;9.79;70.83;101716.19;5011123;28;20087;-62
2022/03/14 02:46:34;;;;;;;;;;;;;;;9.87;68.44;101723.72;5008627;28;20022;-61
2022/03/14 02:48:59;;;;;;;3.33;3.03;;;;;;;9.77;70.56;101716.28;5012223;28;19906;-62
2022/03/14 02:51:25;;;;;;;3.95;3.55;;;;;;;9.75;70.61;101723.47;5007120;28;20037;-61
2022/03/14 02:53:50;;;;;;;3.50;3.20;;;;;;;9.74;70.44;101724.44;5012182;28;20388;-61
2022/03/14 02:56:15;;;;;;;3.47;3.17;;;;;;;9.73;70.69;101737.81;5006002;28;20081;-61
2022/03/14 02:58:41;;;;;;;3.60;3.30;;;;;;;9.71;70.68;101739.66;5008339;28;20068;-61
2022/03/14 03:01:06;;;;;;;3.70;3.40;;;;;;;9.69;70.85;101747.75;5012441;28;20484;-61
2022/03/14 03:03:32;;;;;;;3.53;3.22;;;;;;;9.67;70.79;101756.72;5012521;28;20030;-61
2022/03/14 03:05:58;;;;;;;3.00;2.80;;;;;;;9.64;71.11;101760.41;5012222;28;20365;-61
2022/03/14 03:08:23;;;;;;;3.80;3.40;;;;;;;9.65;70.79;101763.91;5012392;28;20022;-61
2022/03/14 03:10:49;;;;;;;3.83;3.40;;;;;;;9.63;71.03;101770.16;4999729;28;20056;-61
2022/03/14 03:13:15;;;;;;;3.80;3.50;;;;;;;9.62;71.12;101773.75;5012266;28;20041;-61
2022/03/14 03:15:41;;;;;;;3.65;3.35;;;;;;;9.63;70.90;101780.78;5005485;28;20035;-61
2022/03/14 03:18:07;;;;;;;3.50;3.20;;;;;;;9.64;71.22;101784.25;5011991;28;20036;-62
2022/03/14 03:20:32;;;;;;;3.97;3.58;;;;;;;9.64;71.49;101792.22;5000880;28;20027;-61
2022/03/14 03:22:57;;;;;;;3.75;3.45;;;;;;;9.62;72.53;101802.06;5009877;28;20395;-61
2022/03/14 03:25:23;;;;;;;3.70;3.40;;;;;;;9.57;72.87;101797.03;5027860;23;20018;-79
2022/03/14 03:27:48;;;;;;;3.55;3.25;;;;;;;9.55;73.26;101811.34;5048436;28;20098;-79
2022/03/14 03:30:14;;;;;;;3.42;3.17;;;;;;;9.51;73.41;101815.97;5051736;28;20033;-78
2022/03/14 03:32:39;;;;;;;4.07;3.40;;;;;;;9.48;73.61;101820.59;5050499;28;20106;-79
2022/03/14 03:35:04;;;;;;;4.13;3.72;;;;;;;9.42;73.79;101817.31;5048969;28;20036;-78
2022/03/14 03:37:30;;;;;;;6.30;4.05;;;;;;;9.41;73.63;101830.69;5047723;28;20055;-78
2022/03/14 03:39:55;;;;;;;4.32;3.72;;;;;;;9.38;73.89;101839.66;5050697;28;20025;-79
2022/03/14 03:42:20;;;;;;;4.72;4.00;;;;;;;9.31;73.76;101838.28;5041800;28;20032;-79
2022/03/14 03:44:46;;;;;;;5.10;4.30;;;;;;;9.30;73.94;101857.78;5052038;28;20036;-78
2022/03/14 03:47:11;;;;;;;4.57;3.90;;;;;;;9.26;74.03;101859.75;5054164;28;20032;-79
2022/03/14 03:49:38;;;;;;;4.63;4.22;;;;;;;9.25;74.28;101865.13;5055588;28;20056;-78
2022/03/14 03:52:04;;;;;;;4.30;3.90;;;;;;;9.21;74.34;101866.25;5055851;28;20021;-78
2022/03/14 03:54:29;;;;;;;4.78;4.28;;;;;;;9.15;74.62;101866.56;5055299;28;20036;-78
2022/03/14 03:56:54;;;;;;;4.55;4.15;;;;;;;9.14;74.79;101878.09;5057042;28;20028;-78
2022/03/14 03:59:21;;;;;;;5.63;4.40;;;;;;;9.10;74.83;101871.28;5055183;28;20029;-79
2022/03/14 04:01:46;;;;;;;5.28;4.47;;;;;;;9.09;75.54;101886.28;5054153;28;20109;-78
2022/03/14 04:04:11;;;;;;;4.32;3.92;;;;;;;9.05;76.37;101880.31;5054961;28;20082;-78
2022/03/14 04:06:39;;;;;;;8.75;4.88;;;;;;;9.02;76.91;101884.91;5055390;28;20032;-78
2022/03/14 04:09:06;;;;;;;6.38;5.00;;;;;;;8.97;76.97;101885.16;5053000;28;20173;-78
2022/03/14 04:11:31;;;;;;;5.28;4.78;;;;;;;8.95;77.56;101904.75;5055090;28;20036;-78
2022/03/14 04:13:58;;;;;;;6.18;5.18;;;;;;;8.87;78.07;101900.69;5054847;28;20029;-79
2022/03/14 04:16:24;;;;;;;5.35;4.85;;;;;;;8.85;78.26;101909.66;5045887;28;20029;-78
2022/03/14 04:18:50;;;;;;;7.13;5.05;;;;;;;8.84;78.28;101918.53;5055290;28;20053;-79
2022/03/14 04:21:16;;;;;;;7.05;4.75;;;;;;;8.83;78.20;101915.03;5054887;28;20075;-78
2022/03/14 04:23:41;;;;;;;5.85;5.35;;;;;;;8.84;78.03;101927.38;5054914;28;20028;-78
2022/03/14 04:26:07;;;;;;;6.40;5.38;;;;;;;8.81;78.32;101924.88;5040642;28;20052;-78
2022/03/14 04:28:36;;;;;;;5.68;5.07;;;;;;;8.80;78.30;101931.09;5049063;28;20036;-79
2022/03/14 04:31:01;;;;;;;5.90;4.97;;;;;;;8.77;78.31;101931.25;5051205;28;20025;-78
2022/03/14 04:33:26;;;;;;;6.45;5.40;;;;;;;8.76;78.50;101933.97;5054689;28;20039;-78
2022/03/14 04:35:51;;;;;;;6.65;5.47;;;;;;;8.73;78.92;101935.00;5054692;28;20032;-79
2022/03/14 04:38:17;;;;;;;5.90;5.30;;;;;;;8.69;78.53;101942.25;5043082;28;20479;-78
2022/03/14 04:40:43;;;;;;;6.05;5.10;;;;;;;8.66;78.74;101946.81;5054716;28;20029;-77
2022/03/14 04:43:09;;;;;;;6.68;5.25;;;;;;;8.65;78.82;101948.63;5050760;28;20079;-78
2022/03/14 04:45:36;;;;;;;7.43;5.28;;;;;;;8.63;78.84;101954.94;5064874;28;20071;-78
2022/03/14 04:48:02;;;;;;;8.82;5.80;;;;;;;8.60;79.02;101958.59;5068517;28;20070;-78
2022/03/14 04:50:28;;;;;;;6.90;6.18;;;;;;;8.58;79.03;101963.13;5054910;28;20025;-78
2022/03/14 04:52:54;;;;;;;7.32;6.20;;;;;;;8.53;79.07;101954.56;5052886;28;20029;-79
2022/03/14 04:55:19;;;;;;;7.15;6.07;;;;;;;8.51;78.97;101961.72;5054411;28;20502;-78
2022/03/14 04:57:44;;;;;;;7.28;5.78;;;;;;;8.49;79.28;101960.91;5047810;28;20036;-78
2022/03/14 05:00:10;;;;;;;6.90;6.30;;;;;;;8.46;79.11;101966.34;5054155;28;20465;-78
2022/03/14 05:02:35;;;;;;;7.25;6.30;;;;;;;8.45;79.05;101973.44;5054191;28;20040;-78
2022/03/14 05:05:00;;;;;;;7.35;6.60;;;;;;;8.44;78.87;101978.81;5053014;28;20043;-78
2022/03/14 05:07:26;;;;;;;9.15;6.68;;;;;;;8.42;78.93;101992.09;5059998;28;20438;-78
2022/03/14 05:09:51;;;;;;;7.32;6.55;;;;;;;8.43;79.17;102007.09;5056765;28;20044;-79
2022/03/14 05:12:17;;;;;;;7.35;6.60;;;;;;;8.41;79.45;102002.75;5052621;28;20383;-78
2022/03/14 05:14:42;;;;;;;8.90;6.95;;;;;;;8.38;79.32;102006.44;5053909;28;20048;-78
2022/03/14 05:17:08;;;;;;;8.73;7.05;;;;;;;8.39;79.44;102013.44;5053953;28;20037;-78
2022/03/14 05:19:34;;;;;;;7.90;7.13;;;;;;;8.34;79.56;102011.03;5053026;28;20028;-78
2022/03/14 05:21:59;;;;;;;7.45;6.68;;;;;;;8.37;79.71;102022.38;5052475;28;20062;-78
2022/03/14 05:24:25;;;;;;;8.35;7.28;;;;;;;8.38;79.50;102021.47;5041171;28;20120;-78
2022/03/14 05:26:52;;;;;;;8.20;7.30;;;;;;;8.37;79.47;102025.03;5066073;28;20536;-78
2022/03/14 05:29:20;;;;;;;11.38;8.38;;;;;;;8.34;79.69;102018.97;5055179;28;20437;-78
2022/03/14 05:31:45;;;;;;;10.85;8.95;;;;;;;8.37;79.84;102022.38;5054448;28;20059;-78
2022/03/14 05:34:11;;;;;;;11.73;8.50;;;;;;;8.37;79.10;102035.63;5051188;28;20090;-78
2022/03/14 05:36:37;;;;;;;9.80;8.80;;;;;;;8.33;79.54;102035.78;5054147;28;20040;-78
2022/03/14 05:39:03;;;;;;;11.48;8.82;;;;;;;8.36;79.56;102042.72;5040276;28;20037;-78
2022/03/14 05:41:28;;;;;;;13.00;9.10;;;;;;;8.34;80.00;102049.84;5053576;28;20037;-78
2022/03/14 05:43:53;;;;;;;15.52;10.18;;;;;;;8.33;79.92;102053.44;5051071;28;20371;-78
2022/03/14 05:46:19;;;;;;;12.57;10.20;;;;;;;8.33;79.72;102061.41;5052148;28;20068;-77
2022/03/14 05:48:44;;;;;;;12.90;10.07;;;;;;;8.30;80.12;102058.88;5046214;28;20036;-78
2022/03/14 05:51:09;;;;;;;12.60;10.32;;;;;;;8.30;80.07;102065.03;5053423;28;20033;-78
2022/03/14 05:53:35;;;;;;;15.55;10.95;;;;;;;8.29;80.28;102065.97;5067251;28;20025;-78
2022/03/14 05:56:00;;;;;;;17.27;11.40;;;;;;;8.29;79.84;102068.63;5045369;28;20109;-78
2022/03/14 05:58:25;;;;;;;12.30;10.52;;;;;;;8.32;79.90;102078.19;5049868;28;20388;-78
2022/03/14 06:00:52;;;;;;;14.77;11.00;;;;;;;8.32;80.05;102079.03;5052207;28;20120;-78
2022/03/14 06:03:20;;;;;;;14.45;11.20;;;;;;;8.30;80.36;102080.91;5052241;28;20025;-78
2022/03/14 06:05:47;;;;;;;12.35;11.07;;;;;;;8.30;80.06;102094.16;5053237;28;20384;-78
2022/03/14 06:08:13;;;;;;;13.85;11.25;;;;;;;8.31;79.97;102087.94;5056697;28;20017;-78
2022/03/14 06:10:38;;;;;;;16.13;11.90;;;;;;;8.32;79.76;102092.28;5053302;28;20086;-78
2022/03/14 06:13:03;;;;;;;18.13;12.38;;;;;;;8.36;79.95;102108.03;5053310;28;20025;-79
2022/03/14 06:15:29;;;;;;;17.58;12.50;;;;;;;8.35;79.87;102099.22;5049840;28;20021;-79
2022/03/14 06:17:54;;;;;;;20.33;12.07;;;;;;;8.36;80.17;102102.72;5054008;28;20071;-79
2022/03/14 06:20:19;;;;;;;16.30;11.48;;;;;;;8.33;80.35;102104.59;5047577;28;20456;-79
2022/03/14 06:22:49;;;;;;;16.52;11.88;;;;;;;8.36;80.07;102106.25;5033902;28;20052;-78
2022/03/14 06:25:17;;;;;;;16.02;12.18;;;;;;;8.39;80.18;102121.13;5058100;28;20020;-79
2022/03/14 06:27:43;;;;;;;15.63;12.27;;;;;;;8.39;79.47;102121.97;5052628;28;20510;-79
2022/03/14 06:30:09;;;;;;;17.67;13.13;;;;;;;8.39;80.07;102127.25;5053470;28;20033;-79
2022/03/14 06:32:35;;;;;;;20.42;13.25;;;;;;;8.40;80.20;102136.09;5053592;28;20076;-78
2022/03/14 06:35:01;;;;;;;18.30;13.48;;;;;;;8.38;80.06;102132.66;5053248;28;20021;-79
2022/03/14 06:37:26;;;;;;;16.38;13.18;;;;;;;8.38;80.27;102140.59;5053405;28;20298;-79
2022/03/14 06:39:52;;;;;;;17.58;13.50;;;;;;;8.40;80.29;102144.03;5052205;28;20109;-78
2022/03/14 06:42:19;;;;;;;18.70;13.70;;;;;;;8.40;80.33;102141.38;5047852;28;20030;-78
2022/03/14 06:44:44;;;;;;;16.88;13.18;;;;;;;8.43;80.05;102146.56;5033837;28;20034;-79
2022/03/14 06:47:12;;;;;;;18.08;13.52;;;;;;;8.44;79.90;102153.56;5033334;28;20045;-79
2022/03/14 06:49:39;;;;;;;18.98;13.70;;;;;;;8.44;80.13;102148.28;5033233;28;20025;-78
2022/03/14 06:52:05;;;;;;;18.17;13.82;;;;;;;8.46;80.11;102157.88;5039223;28;20423;-78
2022/03/14 06:54:30;;;;;;;15.82;13.55;;;;;;;8.47;80.04;102161.38;5052839;28;20029;-79
2022/03/14 06:56:56;;;;;;;19.20;14.10;;;;;;;8.46;80.16;102157.00;5071150;28;20028;-79
2022/03/14 06:59:21;;;;;;;17.55;14.05;;;;;;;8.47;80.05;102169.31;5073207;28;20016;-78
2022/03/14 07:01:47;;;;;;;19.05;14.90;;;;;;;8.48;79.88;102165.75;5056411;28;20065;-79
2022/03/14 07:04:12;;;;;;;20.50;14.02;;;;;;;8.48;79.61;102165.75;5052956;28;20036;-78
2022/03/14 07:06:37;;;;;;;18.83;14.23;;;;;;;8.48;79.79;102174.53;5053217;28;20032;-79
2022/03/14 07:09:04;;;;;;;17.67;13.75;;;;;;;8.51;79.78;102168.25;5052866;28;20033;-79
2022/03/14 07:11:29;;;;;;;18.08;13.10;;;;;;;8.50;79.50;102177.13;5052703;28;20476;-78
2022/03/14 07:13:55;;;;;;;19.35;13.40;;;;;;;8.55;79.61;102179.56;5052508;28;20087;-79
2022/03/14 07:16:20;;;;;;;20.45;13.93;;;;;;;8.58;79.66;102180.28;5052754;28;20041;-78
2022/03/14 07:18:46;;;;;;;17.45;13.77;;;;;;;8.61;79.66;102192.50;5045846;28;20030;-78
2022/03/14 07:21:11;;;;;;;20.13;14.32;;;;;;;8.61;79.41;102187.19;5036792;28;20037;-78
2022/03/14 07:23:37;;;;;;;19.40;13.53;;;;;;;8.65;78.80;102188.78;5050123;28;20029;-78
2022/03/14 07:26:02;;;;;;;16.83;13.30;;;;;;;8.67;78.99;102192.22;5056352;28;20295;-79
2022/03/14 07:28:27;;;;;;;18.15;14.00;;;;;;;8.65;79.19;102188.78;5056482;28;20021;-78
2022/03/14 07:30:52;;;;;;;20.13;13.17;;;;;;;8.69;79.00;102198.28;5056712;28;20033;-77
2022/03/14 07:33:18;;;;;;;17.90;13.00;;;;;;;8.71;78.91;102196.47;5038080;28;20839;-78
2022/03/14 07:35:44;;;;;;;20.83;13.45;;;;;;;8.75;78.56;102190.06;5036840;28;20024;-77
2022/03/14 07:38:10;;;;;;;17.95;13.48;;;;;;;8.76;78.37;102186.50;5036822;28;20563;-78
2022/03/14 07:40:36;;;;;;;18.20;13.30;;;;;;;8.79;78.55;102196.06;5036483;28;20029;-78
2022/03/14 07:43:01;;;;;;;19.63;13.88;;;;;;;8.82;78.38;102198.56;5036343;28;20088;-79
2022/03/14 07:45:27;;;;;;;22.83;14.98;;;;;;;8.86;78.21;102202.81;5057620;28;20029;-79
2022/03/14 07:47:54;;;;;;;18.45;14.18;;;;;;;8.89;78.04;102211.47;5059244;28;20025;-79
2022/03/14 07:50:20;;;;;;;19.42;13.18;;;;;;;8.93;78.16;102206.88;5076051;28;20069;-79
2022/03/14 07:52:47;;;;;;;20.02;13.57;;;;;;;8.97;78.01;102215.53;5076135;28;20357;-79
2022/03/14 07:55:13;;;;;;;22.90;14.52;;;;;;;9.01;78.02;102219.75;5076067;28;20471;-79
2022/03/14 07:57:38;;;;;;;20.38;14.18;;;;;;;9.05;77.72;102226.63;5063609;28;20121;-79
2022/03/14 08:00:08;;;;;;;21.75;13.77;;;;;;;9.00;77.59;102213.59;5055841;28;20025;-78
2022/03/14 08:02:34;;;;;;;19.88;13.90;;;;;;;9.15;77.39;102229.72;5056161;28;20029;-78
2022/03/14 08:04:59;;;;;;;18.52;13.27;;;;;;;9.16;77.33;102240.25;5055890;28;20029;-79
2022/03/14 08:07:26;;;;;;;22.38;13.93;;;;;;;9.13;77.05;102229.78;5055829;28;20159;-78
2022/03/14 08:09:51;;;;;;;19.83;14.68;;;;;;;9.14;77.16;102230.63;5056024;28;20490;-78
2022/03/14 08:12:16;;;;;;;21.88;15.38;;;;;;;9.17;76.88;102239.28;5055870;28;20029;-79
2022/03/14 08:14:42;;;;;;;23.42;14.32;;;;;;;9.21;76.67;102240.03;5055731;28;20468;-78
2022/03/14 08:17:07;;;;;;;19.13;14.68;;;;;;;9.22;76.92;102249.66;5054422;28;20036;-78
2022/03/14 08:19:34;;;;;;;20.40;14.38;;;;;;;9.24;76.82;102251.34;5055376;28;20048;-78
2022/03/14 08:22:00;;;;;;;20.55;14.02;;;;;;;9.26;76.64;102260.06;5038092;28;20025;-78
2022/03/14 08:24:26;;;;;;;18.00;13.20;;;;;;;9.28;76.14;102264.44;5036145;28;20029;-78
2022/03/14 08:26:53;;;;;;;21.55;13.77;;;;;;;9.29;76.24;102267.00;5050810;28;20049;-79
2022/03/14 08:29:18;;;;;;;19.20;13.32;;;;;;;9.31;76.30;102269.56;5036149;28;20033;-79
2022/03/14 08:31:43;;;;;;;19.83;13.25;;;;;;;9.33;76.21;102265.94;5050074;28;20365;-79
2022/03/14 08:34:10;;;;;;;21.63;14.05;;;;;;;9.33;76.43;102268.56;5055761;28;20420;-79
2022/03/14 08:36:36;;;;;;;18.95;12.80;;;;;;;9.38;75.93;102273.66;5041322;28;20029;-80
2022/03/14 08:39:04;;;;;;;20.38;12.93;;;;;;;9.38;75.92;102277.16;5035574;28;20048;-79
2022/03/14 08:41:30;;;;;;;20.70;12.85;;;;;;;9.41;76.18;102278.81;5036891;28;20029;-79
2022/03/14 08:43:55;;;;;;;20.02;12.10;;;;;;;9.47;76.01;102278.50;5055740;28;20103;-79
2022/03/14 08:46:21;;;;;;;19.45;12.63;;;;;;;9.53;75.45;102285.31;5056266;28;20029;-79
2022/03/14 08:48:46;;;;;;;15.68;11.50;;;;;;;9.60;75.31;102295.53;5055420;28;20029;-78
2022/03/14 08:51:11;;;;;;;20.67;11.82;;;;;;;9.65;74.92;102305.06;5055455;28;20452;-79
2022/03/14 08:53:36;;;;;;;20.00;12.23;;;;;;;9.67;74.94;102313.81;5054835;28;20017;-79
2022/03/14 08:56:02;;;;;;;20.10;11.48;;;;;;;9.69;74.61;102314.59;5053787;28;20029;-79
2022/03/14 08:58:29;;;;;;;16.48;11.20;;;;;;;9.68;74.38;102308.44;5054994;28;20159;-79
2022/03/14 09:00:55;;;;;;;16.63;11.60;;;;;;;9.69;74.45;102312.81;5055006;28;20025;-79
2022/03/14 09:03:21;;;;;;;19.58;10.93;;;;;;;9.75;74.32;102325.75;5054978;28;20368;-80
2022/03/14 09:05:46;;;;;;;18.50;11.25;;;;;;;9.81;74.15;102324.63;5053451;28;20035;-80
2022/03/14 09:08:12;;;;;;;15.93;10.82;;;;;;;9.87;74.42;102326.94;5054758;28;20032;-80
2022/03/14 09:10:37;;;;;;;17.15;10.85;;;;;;;10.02;74.22;102337.72;5054627;28;20109;-80
2022/03/14 09:13:04;;;;;;;17.27;10.05;;;;;;;10.13;73.98;102332.75;5054409;28;20399;-80
2022/03/14 09:15:30;;;;;;;14.40;10.38;;;;;;;10.21;73.16;102341.19;5054418;28;20527;-79
2022/03/14 09:17:59;;;;;;;16.27;11.10;;;;;;;10.27;72.59;102340.84;5054820;28;20028;-79
2022/03/14 09:20:26;;;;;;;16.33;10.50;;;;;;;10.36;72.48;102351.03;5054543;28;20490;-79
2022/03/14 09:22:52;;;;;;;14.48;9.57;;;;;;;10.42;71.72;102355.16;5054828;28;20429;-80
2022/03/14 09:25:19;;;;;;;15.00;9.52;;;;;;;10.51;71.58;102359.16;5054815;28;20036;-80
2022/03/14 09:27:45;;;;;;;18.98;10.82;;;;;;;10.55;71.70;102342.13;5053763;28;20180;-79
2022/03/14 09:30:12;;;;;;;15.32;10.52;;;;;;;10.76;71.83;102347.22;5034704;28;20046;-79
2022/03/14 09:32:38;;;;;;;15.75;9.07;;;;;;;10.92;70.16;102353.44;5034456;28;20484;-79
2022/03/14 09:35:05;;;;;;;15.70;9.63;;;;;;;10.99;69.78;102353.97;5034166;28;20025;-80
2022/03/14 09:37:30;;;;;;;16.35;9.82;;;;;;;11.09;69.56;102365.81;5034511;28;20021;-79
2022/03/14 09:39:57;;;;;;;13.60;8.23;;;;;;;11.12;68.10;102368.31;5041531;28;20021;-79
2022/03/14 09:42:24;;;;;;;10.88;8.15;;;;;;;11.11;67.69;102369.25;5053844;28;20029;-80
2022/03/14 09:44:53;;;;;;;16.60;8.50;;;;;;;11.17;67.60;102373.38;5053832;28;20070;-79
2022/03/14 09:47:19;;;;;;;16.98;8.68;;;;;;;11.27;67.70;102382.56;5053083;28;20028;-79
2022/03/14 09:49:47;;;;;;;14.07;8.23;;;;;;;11.34;67.89;102380.44;5054086;28;20036;-80
2022/03/14 09:52:13;;;;;;;12.85;8.73;;;;;;;11.49;68.18;102390.25;5052725;28;20029;-80
2022/03/14 09:54:38;;;;;;;13.88;8.05;;;;;;;11.61;67.54;102405.50;5046971;28;20032;-79
2022/03/14 09:57:04;;;;;;;13.02;8.70;;;;;;;11.62;66.65;102406.34;5054224;28;20021;-80
2022/03/14 09:59:30;;;;;;;13.63;7.97;;;;;;;11.64;66.76;102401.78;5053811;28;20634;-80
2022/03/14 10:01:55;;;;;;;12.25;7.95;;;;;;;11.76;66.93;102410.94;5039362;28;20192;-80
2022/03/14 10:04:20;;;;;;;16.38;8.45;;;;;;;11.82;66.31;102419.41;5053927;28;20025;-80
2022/03/14 10:06:45;;;;;;;18.27;8.43;;;;;;;11.86;66.00;102422.75;5060607;28;20025;-80
2022/03/14 10:09:11;;;;;;;12.95;8.00;;;;;;;11.90;65.90;102420.78;5053779;28;20326;-80
2022/03/14 10:11:37;;;;;;;15.37;9.27;;;;;;;12.02;65.21;102420.97;5054158;28;20082;-80
2022/03/14 10:14:05;;;;;;;10.52;7.53;;;;;;;12.14;64.21;102414.06;5053443;28;20283;-80
2022/03/14 10:16:32;;;;;;;10.27;6.30;;;;;;;12.24;62.70;102424.19;5044274;28;20052;-81
2022/03/14 10:19:01;;;;;;;12.57;6.88;;;;;;;12.28;62.92;102412.41;5033695;28;20032;-80
2022/03/14 10:21:41;;;;;;;13.90;6.93;;;;;;;12.39;63.85;102418.81;5033864;28;20025;-80
2022/03/14 10:24:09;;;;;;;13.85;7.13;;;;;;;12.48;62.53;102432.56;5036936;28;20460;-79
2022/03/14 10:26:37;;;;;;;9.38;6.78;;;;;;;12.42;60.95;102438.22;5040067;28;20036;-80
2022/03/14 10:29:04;;;;;;;17.10;7.30;;;;;;;12.40;61.85;102444.50;5063051;28;21853;-80
2022/03/14 10:31:34;;;;;;;13.88;7.88;;;;;;;12.40;62.20;102447.16;5033850;28;20061;-80
2022/03/14 10:34:10;;;;;;;16.42;9.00;;;;;;;12.37;61.80;102447.38;5033307;28;20025;-79
2022/03/14 10:36:53;;;;;;;13.85;9.95;;;;;;;12.42;62.30;102443.56;5034166;28;20472;-80
2022/03/14 10:39:21;;;;;;;12.82;9.50;;;;;;;12.36;61.42;102453.63;5034424;28;20037;-80
2022/03/14 10:42:04;;;;;;;16.13;9.90;;;;;;;12.33;61.24;102443.16;5048872;28;20423;-80
2022/03/14 10:44:31;;;;;;;12.73;9.23;;;;;;;12.42;61.38;102459.56;5033584;28;20033;-79
2022/03/14 10:47:00;;;;;;;12.68;9.30;;;;;;;12.43;61.19;102459.47;5033527;28;20499;-80
2022/03/14 10:49:27;;;;;;;14.65;9.07;;;;;;;12.65;60.74;102458.19;5045527;28;20037;-80
2022/03/14 10:52:00;;;;;;;13.55;7.65;;;;;;;12.82;60.96;102465.19;5042985;28;20044;-80
2022/03/14 10:54:26;;;;;;;12.10;7.38;;;;;;;12.89;60.33;102470.06;5054100;28;20037;-81
2022/03/14 10:57:11;;;;;;;16.00;7.95;;;;;;;13.13;60.70;102467.69;5037670;28;20108;-80
2022/03/14 10:59:38;;;;;;;9.60;5.82;;;;;;;13.17;58.77;102476.34;5061690;28;20028;-81
2022/03/14 11:02:06;;;;;;;13.13;6.28;;;;;;;13.31;58.88;102470.19;5045892;28;20068;-80
2022/03/14 11:04:39;;;;;;;8.97;5.90;;;;;;;13.47;58.69;102468.31;5058092;28;20048;-81
2022/03/14 11:07:04;;;;;;;13.68;6.35;;;;;;;13.59;57.61;102476.47;5077463;28;20093;-80
2022/03/14 11:09:40;;;;;;;11.87;6.17;;;;;;;13.72;57.76;102469.41;5039089;28;20464;-80
2022/03/14 11:12:08;;;;;;;12.15;5.47;;;;;;;13.84;56.46;102475.78;5053826;28;20278;-81
2022/03/14 11:14:33;;;;;;;9.25;5.85;;;;;;;14.08;56.15;102476.00;5057108;28;20034;-81
2022/03/14 11:17:20;;;;;;;14.30;5.00;;;;;;;14.28;56.31;102476.50;5043605;28;20032;-80
2022/03/14 11:19:45;;;;;;;12.55;4.70;;;;;;;14.41;54.53;102474.72;5037637;28;20030;-80